sensor_id;sensor_type;location;lat;lon;timestamp;P1;durP1;ratioP1;P2;durP2;ratioP2
51036;SDS011;37064;59.346;18.058;2023-03-08T00:00:33;2.65;;;1.75;;
51036;SDS011;37064;59.346;18.058;2023-03-08T00:02:59;3.63;;;1.42;;
51036;SDS011;37064;59.346;18.058;2023-03-08T00:05:26;2.92;;;1.10;;
51036;SDS011;37064;59.346;18.058;2023-03-08T00:07:53;6.28;;;2.03;;
51036;SDS011;37064;59.346;18.058;2023-03-08T00:10:19;1.98;;;1.38;;
51036;SDS011;37064;59.346;18.058;2023-03-08T00:12:45;3.38;;;1.35;;
51036;SDS011;37064;59.346;18.058;2023-03-08T00:15:11;1.73;;;1.35;;
51036;SDS011;37064;59.346;18.058;2023-03-08T00:17:37;2.97;;;1.50;;
51036;SDS011;37064;59.346;18.058;2023-03-08T00:20:04;2.40;;;1.13;;
51036;SDS011;37064;59.346;18.058;2023-03-08T00:22:34;2.38;;;1.20;;
51036;SDS011;37064;59.346;18.058;2023-03-08T00:25:00;3.40;;;1.00;;
51036;SDS011;37064;59.346;18.058;2023-03-08T00:27:26;2.50;;;1.38;;
51036;SDS011;37064;59.346;18.058;2023-03-08T00:29:52;1.98;;;0.90;;
51036;SDS011;37064;59.346;18.058;2023-03-08T00:32:18;3.90;;;1.60;;
51036;SDS011;37064;59.346;18.058;2023-03-08T00:34:45;1.92;;;1.30;;
51036;SDS011;37064;59.346;18.058;2023-03-08T00:37:11;3.40;;;1.48;;
51036;SDS011;37064;59.346;18.058;2023-03-08T00:39:38;2.40;;;1.23;;
51036;SDS011;37064;59.346;18.058;2023-03-08T00:42:04;2.33;;;1.25;;
51036;SDS011;37064;59.346;18.058;2023-03-08T00:44:30;2.40;;;1.13;;
51036;SDS011;37064;59.346;18.058;2023-03-08T00:46:56;2.10;;;1.67;;
51036;SDS011;37064;59.346;18.058;2023-03-08T00:49:22;1.48;;;0.88;;
51036;SDS011;37064;59.346;18.058;2023-03-08T00:51:48;2.53;;;1.30;;
51036;SDS011;37064;59.346;18.058;2023-03-08T00:54:14;2.95;;;1.48;;
51036;SDS011;37064;59.346;18.058;2023-03-08T00:56:40;2.47;;;1.02;;
51036;SDS011;37064;59.346;18.058;2023-03-08T00:59:06;0.80;;;0.60;;
51036;SDS011;37064;59.346;18.058;2023-03-08T01:01:32;1.33;;;0.90;;
51036;SDS011;37064;59.346;18.058;2023-03-08T01:03:58;1.27;;;1.00;;
51036;SDS011;37064;59.346;18.058;2023-03-08T01:06:24;3.55;;;1.05;;
51036;SDS011;37064;59.346;18.058;2023-03-08T01:08:50;2.78;;;1.20;;
51036;SDS011;37064;59.346;18.058;2023-03-08T01:13:42;3.47;;;0.90;;
51036;SDS011;37064;59.346;18.058;2023-03-08T01:16:18;1.45;;;1.00;;
51036;SDS011;37064;59.346;18.058;2023-03-08T01:18:45;2.20;;;1.08;;
51036;SDS011;37064;59.346;18.058;2023-03-08T01:21:11;2.53;;;1.35;;
51036;SDS011;37064;59.346;18.058;2023-03-08T01:23:37;1.33;;;0.82;;
51036;SDS011;37064;59.346;18.058;2023-03-08T01:26:04;1.42;;;0.95;;
51036;SDS011;37064;59.346;18.058;2023-03-08T01:28:31;1.98;;;1.08;;
51036;SDS011;37064;59.346;18.058;2023-03-08T01:31:04;2.05;;;0.77;;
51036;SDS011;37064;59.346;18.058;2023-03-08T01:33:30;1.42;;;0.98;;
51036;SDS011;37064;59.346;18.058;2023-03-08T01:35:56;1.45;;;0.95;;
51036;SDS011;37064;59.346;18.058;2023-03-08T01:38:22;1.58;;;1.00;;
51036;SDS011;37064;59.346;18.058;2023-03-08T01:40:53;3.08;;;1.13;;
51036;SDS011;37064;59.346;18.058;2023-03-08T01:48:35;2.15;;;1.20;;
51036;SDS011;37064;59.346;18.058;2023-03-08T01:53:29;2.97;;;1.23;;
51036;SDS011;37064;59.346;18.058;2023-03-08T01:55:56;3.47;;;1.00;;
51036;SDS011;37064;59.346;18.058;2023-03-08T01:58:22;3.90;;;1.30;;
51036;SDS011;37064;59.346;18.058;2023-03-08T02:00:48;2.45;;;1.42;;
51036;SDS011;37064;59.346;18.058;2023-03-08T02:03:14;2.20;;;1.20;;
51036;SDS011;37064;59.346;18.058;2023-03-08T02:05:42;1.90;;;1.40;;
51036;SDS011;37064;59.346;18.058;2023-03-08T02:08:08;2.95;;;1.20;;
51036;SDS011;37064;59.346;18.058;2023-03-08T02:10:34;2.00;;;1.10;;
51036;SDS011;37064;59.346;18.058;2023-03-08T02:13:01;3.75;;;1.30;;
51036;SDS011;37064;59.346;18.058;2023-03-08T02:15:27;1.67;;;1.33;;
51036;SDS011;37064;59.346;18.058;2023-03-08T02:17:53;2.17;;;1.60;;
51036;SDS011;37064;59.346;18.058;2023-03-08T02:20:52;2.63;;;1.10;;
51036;SDS011;37064;59.346;18.058;2023-03-08T02:25:57;2.22;;;1.23;;
51036;SDS011;37064;59.346;18.058;2023-03-08T02:28:24;1.48;;;1.00;;
51036;SDS011;37064;59.346;18.058;2023-03-08T02:30:51;2.75;;;1.10;;
51036;SDS011;37064;59.346;18.058;2023-03-08T02:33:17;2.65;;;1.02;;
51036;SDS011;37064;59.346;18.058;2023-03-08T02:35:43;6.47;;;1.38;;
51036;SDS011;37064;59.346;18.058;2023-03-08T02:38:10;2.42;;;1.23;;
51036;SDS011;37064;59.346;18.058;2023-03-08T02:40:37;2.80;;;1.42;;
51036;SDS011;37064;59.346;18.058;2023-03-08T02:43:03;1.52;;;0.80;;
51036;SDS011;37064;59.346;18.058;2023-03-08T02:45:30;2.60;;;1.35;;
51036;SDS011;37064;59.346;18.058;2023-03-08T02:47:56;0.88;;;0.70;;
51036;SDS011;37064;59.346;18.058;2023-03-08T02:50:22;2.80;;;0.98;;
51036;SDS011;37064;59.346;18.058;2023-03-08T02:52:48;2.15;;;1.20;;
51036;SDS011;37064;59.346;18.058;2023-03-08T02:55:14;2.10;;;1.17;;
51036;SDS011;37064;59.346;18.058;2023-03-08T02:57:41;1.98;;;1.08;;
51036;SDS011;37064;59.346;18.058;2023-03-08T03:00:07;1.63;;;0.98;;
51036;SDS011;37064;59.346;18.058;2023-03-08T03:02:33;2.13;;;1.13;;
51036;SDS011;37064;59.346;18.058;2023-03-08T03:05:01;1.58;;;1.00;;
51036;SDS011;37064;59.346;18.058;2023-03-08T03:07:28;2.05;;;1.20;;
51036;SDS011;37064;59.346;18.058;2023-03-08T03:09:54;1.55;;;0.77;;
51036;SDS011;37064;59.346;18.058;2023-03-08T03:12:20;2.92;;;1.30;;
51036;SDS011;37064;59.346;18.058;2023-03-08T03:14:46;2.95;;;1.10;;
51036;SDS011;37064;59.346;18.058;2023-03-08T03:17:12;2.60;;;0.75;;
51036;SDS011;37064;59.346;18.058;2023-03-08T03:19:38;3.42;;;1.02;;
51036;SDS011;37064;59.346;18.058;2023-03-08T03:22:04;2.35;;;1.08;;
51036;SDS011;37064;59.346;18.058;2023-03-08T03:24:30;3.45;;;0.98;;
51036;SDS011;37064;59.346;18.058;2023-03-08T03:26:56;2.47;;;1.23;;
51036;SDS011;37064;59.346;18.058;2023-03-08T03:29:21;3.38;;;1.40;;
51036;SDS011;37064;59.346;18.058;2023-03-08T03:31:48;2.55;;;1.08;;
51036;SDS011;37064;59.346;18.058;2023-03-08T03:34:14;2.10;;;1.23;;
51036;SDS011;37064;59.346;18.058;2023-03-08T03:36:40;3.45;;;1.30;;
51036;SDS011;37064;59.346;18.058;2023-03-08T03:39:06;2.33;;;1.23;;
51036;SDS011;37064;59.346;18.058;2023-03-08T03:41:32;2.20;;;1.17;;
51036;SDS011;37064;59.346;18.058;2023-03-08T03:43:58;2.20;;;1.33;;
51036;SDS011;37064;59.346;18.058;2023-03-08T03:46:24;2.47;;;1.40;;
51036;SDS011;37064;59.346;18.058;2023-03-08T03:48:50;2.35;;;1.77;;
51036;SDS011;37064;59.346;18.058;2023-03-08T03:51:17;2.70;;;1.13;;
51036;SDS011;37064;59.346;18.058;2023-03-08T03:53:43;4.97;;;0.98;;
51036;SDS011;37064;59.346;18.058;2023-03-08T03:56:12;2.90;;;1.13;;
51036;SDS011;37064;59.346;18.058;2023-03-08T03:58:38;1.90;;;1.30;;
51036;SDS011;37064;59.346;18.058;2023-03-08T04:01:09;2.80;;;1.48;;
51036;SDS011;37064;59.346;18.058;2023-03-08T04:03:35;4.35;;;1.40;;
51036;SDS011;37064;59.346;18.058;2023-03-08T04:06:05;3.30;;;1.10;;
51036;SDS011;37064;59.346;18.058;2023-03-08T04:08:31;2.38;;;1.30;;
51036;SDS011;37064;59.346;18.058;2023-03-08T04:11:00;2.38;;;1.63;;
51036;SDS011;37064;59.346;18.058;2023-03-08T04:13:26;1.88;;;1.20;;
51036;SDS011;37064;59.346;18.058;2023-03-08T04:15:52;2.85;;;1.55;;
51036;SDS011;37064;59.346;18.058;2023-03-08T04:18:18;2.08;;;1.20;;
51036;SDS011;37064;59.346;18.058;2023-03-08T04:20:44;2.50;;;1.92;;
51036;SDS011;37064;59.346;18.058;2023-03-08T04:23:11;2.95;;;1.30;;
51036;SDS011;37064;59.346;18.058;2023-03-08T04:25:37;2.30;;;1.20;;
51036;SDS011;37064;59.346;18.058;2023-03-08T04:28:03;1.98;;;1.17;;
51036;SDS011;37064;59.346;18.058;2023-03-08T04:30:29;1.92;;;1.10;;
51036;SDS011;37064;59.346;18.058;2023-03-08T04:32:55;1.33;;;0.98;;
51036;SDS011;37064;59.346;18.058;2023-03-08T04:35:21;3.53;;;0.80;;
51036;SDS011;37064;59.346;18.058;2023-03-08T04:37:47;1.35;;;0.98;;
51036;SDS011;37064;59.346;18.058;2023-03-08T04:40:13;3.05;;;1.35;;
51036;SDS011;37064;59.346;18.058;2023-03-08T04:42:39;4.00;;;1.27;;
51036;SDS011;37064;59.346;18.058;2023-03-08T04:45:05;2.00;;;1.20;;
51036;SDS011;37064;59.346;18.058;2023-03-08T04:47:32;1.50;;;1.02;;
51036;SDS011;37064;59.346;18.058;2023-03-08T04:49:58;1.60;;;0.80;;
51036;SDS011;37064;59.346;18.058;2023-03-08T04:52:24;2.65;;;1.20;;
51036;SDS011;37064;59.346;18.058;2023-03-08T04:54:50;2.38;;;1.08;;
51036;SDS011;37064;59.346;18.058;2023-03-08T04:57:16;1.58;;;1.00;;
51036;SDS011;37064;59.346;18.058;2023-03-08T04:59:42;2.28;;;1.27;;
51036;SDS011;37064;59.346;18.058;2023-03-08T05:02:08;1.95;;;0.90;;
51036;SDS011;37064;59.346;18.058;2023-03-08T05:04:34;3.15;;;1.05;;
51036;SDS011;37064;59.346;18.058;2023-03-08T05:07:00;2.72;;;1.02;;
51036;SDS011;37064;59.346;18.058;2023-03-08T05:09:26;1.88;;;1.02;;
51036;SDS011;37064;59.346;18.058;2023-03-08T05:11:52;0.93;;;0.70;;
51036;SDS011;37064;59.346;18.058;2023-03-08T05:14:18;3.28;;;1.63;;
51036;SDS011;37064;59.346;18.058;2023-03-08T05:16:45;1.27;;;0.77;;
51036;SDS011;37064;59.346;18.058;2023-03-08T05:19:11;3.05;;;0.98;;
51036;SDS011;37064;59.346;18.058;2023-03-08T05:21:37;1.65;;;0.90;;
51036;SDS011;37064;59.346;18.058;2023-03-08T05:24:03;1.67;;;0.90;;
51036;SDS011;37064;59.346;18.058;2023-03-08T05:26:29;1.85;;;1.05;;
51036;SDS011;37064;59.346;18.058;2023-03-08T05:28:55;2.75;;;0.90;;
51036;SDS011;37064;59.346;18.058;2023-03-08T05:31:21;1.33;;;0.80;;
51036;SDS011;37064;59.346;18.058;2023-03-08T05:33:49;1.88;;;0.82;;
51036;SDS011;37064;59.346;18.058;2023-03-08T05:36:15;2.13;;;0.65;;
51036;SDS011;37064;59.346;18.058;2023-03-08T05:38:42;1.23;;;0.80;;
51036;SDS011;37064;59.346;18.058;2023-03-08T05:41:10;1.23;;;0.80;;
51036;SDS011;37064;59.346;18.058;2023-03-08T05:43:36;9.35;;;0.98;;
51036;SDS011;37064;59.346;18.058;2023-03-08T05:46:04;2.25;;;1.45;;
51036;SDS011;37064;59.346;18.058;2023-03-08T05:48:30;2.17;;;1.02;;
51036;SDS011;37064;59.346;18.058;2023-03-08T05:50:57;2.10;;;0.90;;
51036;SDS011;37064;59.346;18.058;2023-03-08T05:53:24;1.65;;;0.70;;
51036;SDS011;37064;59.346;18.058;2023-03-08T05:55:50;1.85;;;0.93;;
51036;SDS011;37064;59.346;18.058;2023-03-08T05:58:16;1.17;;;0.75;;
51036;SDS011;37064;59.346;18.058;2023-03-08T06:00:42;1.02;;;0.70;;
51036;SDS011;37064;59.346;18.058;2023-03-08T06:03:08;3.83;;;0.93;;
51036;SDS011;37064;59.346;18.058;2023-03-08T06:05:34;2.60;;;0.75;;
51036;SDS011;37064;59.346;18.058;2023-03-08T06:08:00;1.08;;;0.70;;
51036;SDS011;37064;59.346;18.058;2023-03-08T06:10:26;1.55;;;0.60;;
51036;SDS011;37064;59.346;18.058;2023-03-08T06:12:52;1.00;;;0.80;;
51036;SDS011;37064;59.346;18.058;2023-03-08T06:15:18;1.75;;;0.75;;
51036;SDS011;37064;59.346;18.058;2023-03-08T06:17:44;1.63;;;0.70;;
51036;SDS011;37064;59.346;18.058;2023-03-08T06:20:10;0.93;;;0.68;;
51036;SDS011;37064;59.346;18.058;2023-03-08T06:22:36;1.55;;;0.75;;
51036;SDS011;37064;59.346;18.058;2023-03-08T06:25:02;1.65;;;0.80;;
51036;SDS011;37064;59.346;18.058;2023-03-08T06:27:28;1.88;;;0.77;;
51036;SDS011;37064;59.346;18.058;2023-03-08T06:29:54;2.03;;;1.02;;
51036;SDS011;37064;59.346;18.058;2023-03-08T06:32:20;2.03;;;1.00;;
51036;SDS011;37064;59.346;18.058;2023-03-08T06:34:46;1.38;;;0.52;;
51036;SDS011;37064;59.346;18.058;2023-03-08T06:37:13;0.88;;;0.57;;
51036;SDS011;37064;59.346;18.058;2023-03-08T06:39:39;0.70;;;0.57;;
51036;SDS011;37064;59.346;18.058;2023-03-08T06:42:05;0.93;;;0.75;;
51036;SDS011;37064;59.346;18.058;2023-03-08T06:44:32;1.67;;;0.70;;
51036;SDS011;37064;59.346;18.058;2023-03-08T06:46:58;0.80;;;0.63;;
51036;SDS011;37064;59.346;18.058;2023-03-08T06:49:24;0.50;;;0.40;;
51036;SDS011;37064;59.346;18.058;2023-03-08T06:51:50;0.63;;;0.47;;
51036;SDS011;37064;59.346;18.058;2023-03-08T06:54:16;1.20;;;0.93;;
51036;SDS011;37064;59.346;18.058;2023-03-08T06:56:45;0.80;;;0.52;;
51036;SDS011;37064;59.346;18.058;2023-03-08T06:59:12;1.73;;;0.60;;
51036;SDS011;37064;59.346;18.058;2023-03-08T07:01:38;0.60;;;0.60;;
51036;SDS011;37064;59.346;18.058;2023-03-08T07:04:05;1.15;;;0.57;;
51036;SDS011;37064;59.346;18.058;2023-03-08T07:06:31;0.32;;;0.30;;
51036;SDS011;37064;59.346;18.058;2023-03-08T07:08:57;0.52;;;0.50;;
51036;SDS011;37064;59.346;18.058;2023-03-08T07:11:23;0.93;;;0.70;;
51036;SDS011;37064;59.346;18.058;2023-03-08T07:13:50;2.88;;;0.60;;
51036;SDS011;37064;59.346;18.058;2023-03-08T07:16:16;0.40;;;0.35;;
51036;SDS011;37064;59.346;18.058;2023-03-08T07:18:42;0.50;;;0.50;;
51036;SDS011;37064;59.346;18.058;2023-03-08T07:21:08;0.57;;;0.50;;
51036;SDS011;37064;59.346;18.058;2023-03-08T07:23:35;3.70;;;0.73;;
51036;SDS011;37064;59.346;18.058;2023-03-08T07:26:04;1.27;;;0.88;;
51036;SDS011;37064;59.346;18.058;2023-03-08T07:28:30;0.60;;;0.45;;
51036;SDS011;37064;59.346;18.058;2023-03-08T07:30:57;1.42;;;0.63;;
51036;SDS011;37064;59.346;18.058;2023-03-08T07:33:22;0.47;;;0.47;;
51036;SDS011;37064;59.346;18.058;2023-03-08T07:35:48;0.60;;;0.52;;
51036;SDS011;37064;59.346;18.058;2023-03-08T07:38:15;0.80;;;0.60;;
51036;SDS011;37064;59.346;18.058;2023-03-08T07:40:41;0.50;;;0.50;;
51036;SDS011;37064;59.346;18.058;2023-03-08T07:43:07;0.50;;;0.50;;
51036;SDS011;37064;59.346;18.058;2023-03-08T07:45:33;0.65;;;0.65;;
51036;SDS011;37064;59.346;18.058;2023-03-08T07:47:59;0.77;;;0.70;;
51036;SDS011;37064;59.346;18.058;2023-03-08T07:50:25;0.73;;;0.55;;
51036;SDS011;37064;59.346;18.058;2023-03-08T07:52:51;1.13;;;0.63;;
51036;SDS011;37064;59.346;18.058;2023-03-08T07:55:17;0.80;;;0.65;;
51036;SDS011;37064;59.346;18.058;2023-03-08T07:57:43;0.50;;;0.50;;
51036;SDS011;37064;59.346;18.058;2023-03-08T08:00:09;0.50;;;0.50;;
51036;SDS011;37064;59.346;18.058;2023-03-08T08:02:35;0.70;;;0.50;;
51036;SDS011;37064;59.346;18.058;2023-03-08T08:05:02;0.60;;;0.60;;
51036;SDS011;37064;59.346;18.058;2023-03-08T08:07:28;0.98;;;0.40;;
51036;SDS011;37064;59.346;18.058;2023-03-08T08:09:55;0.52;;;0.43;;
51036;SDS011;37064;59.346;18.058;2023-03-08T08:12:21;0.43;;;0.43;;
51036;SDS011;37064;59.346;18.058;2023-03-08T08:14:49;0.43;;;0.40;;
51036;SDS011;37064;59.346;18.058;2023-03-08T08:17:17;1.67;;;1.02;;
51036;SDS011;37064;59.346;18.058;2023-03-08T08:19:43;0.52;;;0.47;;
51036;SDS011;37064;59.346;18.058;2023-03-08T08:22:09;0.60;;;0.60;;
51036;SDS011;37064;59.346;18.058;2023-03-08T08:24:35;0.93;;;0.47;;
51036;SDS011;37064;59.346;18.058;2023-03-08T08:27:01;1.85;;;0.65;;
51036;SDS011;37064;59.346;18.058;2023-03-08T08:29:27;0.75;;;0.75;;
51036;SDS011;37064;59.346;18.058;2023-03-08T08:31:53;0.43;;;0.43;;
51036;SDS011;37064;59.346;18.058;2023-03-08T08:34:20;0.82;;;0.77;;
51036;SDS011;37064;59.346;18.058;2023-03-08T08:36:46;0.30;;;0.30;;
51036;SDS011;37064;59.346;18.058;2023-03-08T08:39:12;3.25;;;0.52;;
51036;SDS011;37064;59.346;18.058;2023-03-08T08:41:38;1.70;;;0.50;;
51036;SDS011;37064;59.346;18.058;2023-03-08T08:44:04;0.40;;;0.30;;
51036;SDS011;37064;59.346;18.058;2023-03-08T08:46:30;0.75;;;0.60;;
51036;SDS011;37064;59.346;18.058;2023-03-08T08:48:58;1.83;;;1.20;;
51036;SDS011;37064;59.346;18.058;2023-03-08T08:51:24;1.55;;;0.68;;
51036;SDS011;37064;59.346;18.058;2023-03-08T08:53:51;1.85;;;1.00;;
51036;SDS011;37064;59.346;18.058;2023-03-08T08:56:21;0.40;;;0.38;;
51036;SDS011;37064;59.346;18.058;2023-03-08T08:58:47;0.57;;;0.47;;
51036;SDS011;37064;59.346;18.058;2023-03-08T09:01:14;0.85;;;0.60;;
51036;SDS011;37064;59.346;18.058;2023-03-08T09:03:42;0.70;;;0.65;;
51036;SDS011;37064;59.346;18.058;2023-03-08T09:06:08;0.60;;;0.55;;
51036;SDS011;37064;59.346;18.058;2023-03-08T09:08:34;0.65;;;0.60;;
51036;SDS011;37064;59.346;18.058;2023-03-08T09:11:03;0.50;;;0.50;;
51036;SDS011;37064;59.346;18.058;2023-03-08T09:13:29;0.93;;;0.40;;
51036;SDS011;37064;59.346;18.058;2023-03-08T09:15:56;0.73;;;0.50;;
51036;SDS011;37064;59.346;18.058;2023-03-08T09:18:22;4.95;;;0.73;;
51036;SDS011;37064;59.346;18.058;2023-03-08T09:20:48;1.15;;;0.60;;
51036;SDS011;37064;59.346;18.058;2023-03-08T09:23:14;0.40;;;0.40;;
51036;SDS011;37064;59.346;18.058;2023-03-08T09:25:40;0.38;;;0.38;;
51036;SDS011;37064;59.346;18.058;2023-03-08T09:28:06;0.30;;;0.30;;
51036;SDS011;37064;59.346;18.058;2023-03-08T09:30:32;0.30;;;0.30;;
51036;SDS011;37064;59.346;18.058;2023-03-08T09:32:58;0.47;;;0.40;;
51036;SDS011;37064;59.346;18.058;2023-03-08T09:35:26;0.40;;;0.40;;
51036;SDS011;37064;59.346;18.058;2023-03-08T09:37:52;0.47;;;0.47;;
51036;SDS011;37064;59.346;18.058;2023-03-08T09:40:19;0.57;;;0.40;;
51036;SDS011;37064;59.346;18.058;2023-03-08T09:42:45;1.20;;;0.68;;
51036;SDS011;37064;59.346;18.058;2023-03-08T09:45:22;0.30;;;0.30;;
51036;SDS011;37064;59.346;18.058;2023-03-08T09:48:06;1.52;;;0.70;;
51036;SDS011;37064;59.346;18.058;2023-03-08T09:53:13;0.95;;;0.70;;
51036;SDS011;37064;59.346;18.058;2023-03-08T09:56:24;0.30;;;0.30;;
51036;SDS011;37064;59.346;18.058;2023-03-08T09:58:31;0.65;;;0.55;;
51036;SDS011;37064;59.346;18.058;2023-03-08T10:01:00;0.55;;;0.47;;
51036;SDS011;37064;59.346;18.058;2023-03-08T10:03:32;0.52;;;0.40;;
51036;SDS011;37064;59.346;18.058;2023-03-08T10:08:52;0.30;;;0.30;;
51036;SDS011;37064;59.346;18.058;2023-03-08T10:11:23;0.52;;;0.38;;
51036;SDS011;37064;59.346;18.058;2023-03-08T10:13:54;1.10;;;1.00;;
51036;SDS011;37064;59.346;18.058;2023-03-08T10:16:26;0.70;;;0.50;;
51036;SDS011;37064;59.346;18.058;2023-03-08T10:21:38;0.38;;;0.38;;
51036;SDS011;37064;59.346;18.058;2023-03-08T10:26:31;0.68;;;0.68;;
51036;SDS011;37064;59.346;18.058;2023-03-08T10:28:57;0.50;;;0.50;;
51036;SDS011;37064;59.346;18.058;2023-03-08T10:31:25;1.38;;;0.75;;
51036;SDS011;37064;59.346;18.058;2023-03-08T10:33:53;0.20;;;0.20;;
51036;SDS011;37064;59.346;18.058;2023-03-08T10:36:22;0.75;;;0.57;;
51036;SDS011;37064;59.346;18.058;2023-03-08T10:39:08;0.65;;;0.50;;
51036;SDS011;37064;59.346;18.058;2023-03-08T10:41:36;0.50;;;0.50;;
51036;SDS011;37064;59.346;18.058;2023-03-08T10:44:04;0.73;;;0.50;;
51036;SDS011;37064;59.346;18.058;2023-03-08T10:46:30;0.82;;;0.60;;
51036;SDS011;37064;59.346;18.058;2023-03-08T10:49:07;0.60;;;0.40;;
51036;SDS011;37064;59.346;18.058;2023-03-08T10:51:34;1.23;;;0.60;;
51036;SDS011;37064;59.346;18.058;2023-03-08T10:54:01;3.00;;;0.77;;
51036;SDS011;37064;59.346;18.058;2023-03-08T10:56:37;1.60;;;0.70;;
51036;SDS011;37064;59.346;18.058;2023-03-08T10:59:05;0.30;;;0.30;;
51036;SDS011;37064;59.346;18.058;2023-03-08T11:01:32;0.65;;;0.50;;
51036;SDS011;37064;59.346;18.058;2023-03-08T11:04:00;3.58;;;0.57;;
51036;SDS011;37064;59.346;18.058;2023-03-08T11:06:26;1.55;;;0.57;;
51036;SDS011;37064;59.346;18.058;2023-03-08T11:08:53;0.50;;;0.50;;
51036;SDS011;37064;59.346;18.058;2023-03-08T11:11:20;0.57;;;0.40;;
51036;SDS011;37064;59.346;18.058;2023-03-08T11:13:47;0.65;;;0.60;;
51036;SDS011;37064;59.346;18.058;2023-03-08T11:16:21;0.30;;;0.30;;
51036;SDS011;37064;59.346;18.058;2023-03-08T11:24:00;1.40;;;0.65;;
51036;SDS011;37064;59.346;18.058;2023-03-08T11:27:13;0.60;;;0.40;;
51036;SDS011;37064;59.346;18.058;2023-03-08T11:31:50;0.40;;;0.40;;
51036;SDS011;37064;59.346;18.058;2023-03-08T11:34:27;1.15;;;0.73;;
51036;SDS011;37064;59.346;18.058;2023-03-08T11:37:01;0.30;;;0.30;;
51036;SDS011;37064;59.346;18.058;2023-03-08T11:39:34;0.55;;;0.40;;
51036;SDS011;37064;59.346;18.058;2023-03-08T11:52:21;0.35;;;0.35;;
51036;SDS011;37064;59.346;18.058;2023-03-08T11:57:34;0.35;;;0.35;;
51036;SDS011;37064;59.346;18.058;2023-03-08T12:00:11;1.15;;;1.05;;
51036;SDS011;37064;59.346;18.058;2023-03-08T12:02:44;0.73;;;0.52;;
51036;SDS011;37064;59.346;18.058;2023-03-08T12:05:13;2.28;;;0.57;;
51036;SDS011;37064;59.346;18.058;2023-03-08T12:07:41;0.50;;;0.38;;
51036;SDS011;37064;59.346;18.058;2023-03-08T12:10:18;0.40;;;0.40;;
51036;SDS011;37064;59.346;18.058;2023-03-08T12:13:04;0.88;;;0.60;;
51036;SDS011;37064;59.346;18.058;2023-03-08T12:15:36;1.23;;;0.60;;
51036;SDS011;37064;59.346;18.058;2023-03-08T12:18:05;0.40;;;0.40;;
51036;SDS011;37064;59.346;18.058;2023-03-08T12:20:34;0.85;;;0.43;;
51036;SDS011;37064;59.346;18.058;2023-03-08T12:25:34;0.50;;;0.50;;
51036;SDS011;37064;59.346;18.058;2023-03-08T12:33:26;1.10;;;0.80;;
51036;SDS011;37064;59.346;18.058;2023-03-08T12:35:55;0.70;;;0.60;;
51036;SDS011;37064;59.346;18.058;2023-03-08T12:40:48;0.55;;;0.40;;
51036;SDS011;37064;59.346;18.058;2023-03-08T12:45:45;1.05;;;0.80;;
51036;SDS011;37064;59.346;18.058;2023-03-08T12:48:16;1.13;;;0.50;;
51036;SDS011;37064;59.346;18.058;2023-03-08T12:50:54;0.40;;;0.40;;
51036;SDS011;37064;59.346;18.058;2023-03-08T12:58:37;1.20;;;0.60;;
51036;SDS011;37064;59.346;18.058;2023-03-08T13:01:21;1.20;;;0.60;;
51036;SDS011;37064;59.346;18.058;2023-03-08T13:03:47;0.55;;;0.50;;
51036;SDS011;37064;59.346;18.058;2023-03-08T13:06:15;0.98;;;0.88;;
51036;SDS011;37064;59.346;18.058;2023-03-08T13:09:11;0.85;;;0.55;;
51036;SDS011;37064;59.346;18.058;2023-03-08T13:11:43;1.50;;;0.80;;
51036;SDS011;37064;59.346;18.058;2023-03-08T13:14:26;0.70;;;0.50;;
51036;SDS011;37064;59.346;18.058;2023-03-08T13:16:53;0.90;;;0.60;;
51036;SDS011;37064;59.346;18.058;2023-03-08T13:19:25;0.95;;;0.60;;
51036;SDS011;37064;59.346;18.058;2023-03-08T13:29:30;0.60;;;0.40;;
51036;SDS011;37064;59.346;18.058;2023-03-08T13:31:56;1.25;;;0.75;;
51036;SDS011;37064;59.346;18.058;2023-03-08T13:34:29;1.00;;;0.70;;
51036;SDS011;37064;59.346;18.058;2023-03-08T13:36:56;0.55;;;0.40;;
51036;SDS011;37064;59.346;18.058;2023-03-08T13:39:23;1.77;;;0.68;;
51036;SDS011;37064;59.346;18.058;2023-03-08T13:41:50;1.08;;;0.80;;
51036;SDS011;37064;59.346;18.058;2023-03-08T13:46:42;1.02;;;0.60;;
51036;SDS011;37064;59.346;18.058;2023-03-08T13:49:12;0.38;;;0.30;;
51036;SDS011;37064;59.346;18.058;2023-03-08T13:51:39;1.50;;;0.57;;
51036;SDS011;37064;59.346;18.058;2023-03-08T13:54:11;0.77;;;0.38;;
51036;SDS011;37064;59.346;18.058;2023-03-08T13:56:39;1.10;;;0.52;;
51036;SDS011;37064;59.346;18.058;2023-03-08T13:59:05;0.30;;;0.30;;
51036;SDS011;37064;59.346;18.058;2023-03-08T14:01:32;1.70;;;0.57;;
51036;SDS011;37064;59.346;18.058;2023-03-08T14:03:58;0.60;;;0.43;;
51036;SDS011;37064;59.346;18.058;2023-03-08T14:06:35;0.40;;;0.40;;
51036;SDS011;37064;59.346;18.058;2023-03-08T14:09:02;1.27;;;0.68;;
51036;SDS011;37064;59.346;18.058;2023-03-08T14:11:30;1.27;;;0.40;;
51036;SDS011;37064;59.346;18.058;2023-03-08T14:13:57;1.05;;;0.60;;
51036;SDS011;37064;59.346;18.058;2023-03-08T14:16:26;1.60;;;1.00;;
51036;SDS011;37064;59.346;18.058;2023-03-08T14:18:54;0.30;;;0.30;;
51036;SDS011;37064;59.346;18.058;2023-03-08T14:21:21;1.77;;;0.60;;
51036;SDS011;37064;59.346;18.058;2023-03-08T14:23:58;1.05;;;0.90;;
51036;SDS011;37064;59.346;18.058;2023-03-08T14:26:26;0.40;;;0.40;;
51036;SDS011;37064;59.346;18.058;2023-03-08T14:31:37;1.67;;;0.57;;
51036;SDS011;37064;59.346;18.058;2023-03-08T14:34:03;0.88;;;0.52;;
51036;SDS011;37064;59.346;18.058;2023-03-08T14:36:44;3.17;;;1.20;;
51036;SDS011;37064;59.346;18.058;2023-03-08T14:39:16;3.33;;;0.50;;
51036;SDS011;37064;59.346;18.058;2023-03-08T14:41:42;0.88;;;0.40;;
51036;SDS011;37064;59.346;18.058;2023-03-08T14:44:13;1.13;;;0.45;;
51036;SDS011;37064;59.346;18.058;2023-03-08T14:46:42;0.30;;;0.30;;
51036;SDS011;37064;59.346;18.058;2023-03-08T14:49:17;0.68;;;0.50;;
51036;SDS011;37064;59.346;18.058;2023-03-08T14:51:43;0.52;;;0.40;;
51036;SDS011;37064;59.346;18.058;2023-03-08T14:54:20;0.50;;;0.45;;
51036;SDS011;37064;59.346;18.058;2023-03-08T14:56:47;0.60;;;0.55;;
51036;SDS011;37064;59.346;18.058;2023-03-08T14:59:13;0.65;;;0.50;;
51036;SDS011;37064;59.346;18.058;2023-03-08T15:01:40;1.00;;;0.60;;
51036;SDS011;37064;59.346;18.058;2023-03-08T15:04:24;0.77;;;0.52;;
51036;SDS011;37064;59.346;18.058;2023-03-08T15:06:51;0.40;;;0.40;;
51036;SDS011;37064;59.346;18.058;2023-03-08T15:09:19;0.32;;;0.32;;
51036;SDS011;37064;59.346;18.058;2023-03-08T15:11:46;0.70;;;0.52;;
51036;SDS011;37064;59.346;18.058;2023-03-08T15:14:13;0.55;;;0.40;;
51036;SDS011;37064;59.346;18.058;2023-03-08T15:16:39;0.68;;;0.50;;
51036;SDS011;37064;59.346;18.058;2023-03-08T15:19:05;0.70;;;0.68;;
51036;SDS011;37064;59.346;18.058;2023-03-08T15:21:32;1.42;;;0.80;;
51036;SDS011;37064;59.346;18.058;2023-03-08T15:23:59;0.88;;;0.60;;
51036;SDS011;37064;59.346;18.058;2023-03-08T15:26:26;0.93;;;0.50;;
51036;SDS011;37064;59.346;18.058;2023-03-08T15:28:53;0.32;;;0.32;;
51036;SDS011;37064;59.346;18.058;2023-03-08T15:31:19;0.93;;;0.50;;
51036;SDS011;37064;59.346;18.058;2023-03-08T15:33:46;0.93;;;0.68;;
51036;SDS011;37064;59.346;18.058;2023-03-08T15:36:13;0.50;;;0.50;;
51036;SDS011;37064;59.346;18.058;2023-03-08T15:38:39;1.05;;;0.57;;
51036;SDS011;37064;59.346;18.058;2023-03-08T15:41:05;0.45;;;0.40;;
51036;SDS011;37064;59.346;18.058;2023-03-08T15:43:31;0.52;;;0.50;;
51036;SDS011;37064;59.346;18.058;2023-03-08T15:45:57;1.10;;;0.70;;
51036;SDS011;37064;59.346;18.058;2023-03-08T15:48:23;0.38;;;0.30;;
51036;SDS011;37064;59.346;18.058;2023-03-08T15:50:49;0.90;;;0.68;;